Terminal Aerodrome Forecast
Issued by NWS

Home | Current Version | Previous Version | Text Only | Print | Product List | Glossary On
Versions: 1 2 3 4 5 6 7 8 9 10 11 12 13 14 15 16 17 18 19 20 21 22 23 24 25 26 27 28
632
FTUS43 KABR 232147 AAB
TAFATY
TAF AMD
KATY 232147Z 2322/2418 28009KT 5SM BR OVC004
     FM232300 28006KT P6SM BKN200
     FM240400 29005KT 4SM BR SCT008
     FM240500 30006KT 3SM BR BKN008
     FM240900 29004KT 1/4SM FG SCT008
     FM241300 VRB03KT 1/2SM FG BKN003
     FM241500 21004KT 1 1/2SM BR BKN008
     FM241700 21005KT P6SM SCT030=

USA.gov is the U.S. government's official web portal to all federal, state and local government web resources and services.